Terminal Aerodrome Forecast
Issued by NWS Twin Cities, MN

Home | Current Version | Previous Version | Text Only | Print | Product List | Glossary On
Versions: 1 2 3 4 5 6 7 8 9 10 11 12 13 14 15 16 17 18 19
000
FTUS43 KMPX 231700
TAFEAU
TAF
KEAU 231739Z 2318/2418 18009KT P6SM SCT250
     FM240600 16005KT P6SM OVC150
     FM241600 17012KT P6SM OVC070=

USA.gov is the U.S. government's official web portal to all federal, state and local government web resources and services.